createdAt,value
2019-05-10T00:00:18.305Z,4.17
2019-05-10T00:03:05.518Z,4.67
2019-05-10T00:05:52.429Z,4.20
2019-05-10T00:08:39.788Z,4.40
2019-05-10T00:11:34.563Z,4.60
2019-05-10T00:14:13.988Z,5.13
2019-05-10T00:16:43.787Z,4.97
2019-05-10T00:19:13.700Z,5.97
2019-05-10T00:21:42.955Z,5.53
2019-05-10T00:24:12.526Z,6.07
2019-05-10T00:26:41.867Z,6.47
2019-05-10T00:29:11.112Z,6.87
2019-05-10T00:31:40.544Z,6.53
2019-05-10T00:34:10.702Z,5.97
2019-05-10T00:36:40.263Z,6.10
2019-05-10T00:39:09.502Z,6.63
2019-05-10T00:41:39.095Z,6.20
2019-05-10T00:44:08.256Z,6.33
2019-05-10T00:46:37.425Z,6.77
2019-05-10T00:49:06.586Z,6.80
2019-05-10T00:51:36.135Z,6.10
2019-05-10T00:54:05.382Z,6.37
2019-05-10T00:56:34.615Z,5.93
2019-05-10T00:59:04.063Z,5.90
2019-05-10T01:01:33.387Z,5.93
2019-05-10T01:04:02.661Z,6.43
2019-05-10T01:06:31.889Z,6.67
2019-05-10T01:09:01.402Z,6.33
2019-05-10T01:11:30.984Z,6.83
2019-05-10T01:14:00.145Z,6.70
2019-05-10T01:16:29.309Z,6.60
2019-05-10T01:18:58.477Z,7.03
2019-05-10T01:21:28.103Z,6.23
2019-05-10T01:23:57.715Z,6.93
2019-05-10T01:26:26.949Z,6.03
2019-05-10T01:28:56.137Z,7.50
2019-05-10T01:31:25.601Z,7.10
2019-05-10T01:33:54.887Z,7.13
2019-05-10T01:36:24.778Z,6.80
2019-05-10T01:38:54.323Z,7.03
2019-05-10T01:41:23.509Z,6.90
2019-05-10T01:43:52.676Z,6.60
2019-05-10T01:46:22.257Z,7.30
2019-05-10T01:48:51.435Z,6.97
2019-05-10T01:51:20.660Z,6.93
2019-05-10T01:53:50.149Z,6.77
2019-05-10T01:56:19.291Z,7.00
2019-05-10T01:58:48.469Z,6.60
2019-05-10T02:01:17.709Z,6.47
2019-05-10T02:03:46.920Z,6.80
2019-05-10T02:06:16.085Z,6.93
2019-05-10T02:08:45.303Z,6.93
2019-05-10T02:11:14.925Z,6.87
2019-05-10T02:13:44.095Z,7.33
2019-05-10T02:16:13.339Z,6.77
2019-05-10T02:18:42.596Z,7.20
2019-05-10T02:21:12.168Z,7.27
2019-05-10T02:23:41.336Z,7.10
2019-05-10T02:26:10.596Z,6.93
2019-05-10T02:28:40.280Z,7.40
2019-05-10T02:31:09.994Z,6.87
2019-05-10T02:33:39.249Z,7.10
2019-05-10T02:36:08.493Z,7.37
2019-05-10T02:38:37.779Z,7.87
2019-05-10T02:41:07.555Z,7.13
2019-05-10T02:43:36.795Z,8.33
2019-05-10T02:46:06.055Z,8.03
2019-05-10T02:48:35.317Z,7.33
2019-05-10T02:51:04.906Z,7.90
2019-05-10T02:53:34.376Z,9.50
2019-05-10T02:56:04.212Z,9.67
2019-05-10T02:58:34.254Z,9.90
2019-05-10T03:01:05.805Z,10.43
2019-05-10T03:03:38.495Z,9.10
2019-05-10T03:06:08.406Z,11.60
2019-05-10T03:08:50.844Z,11.97
2019-05-10T03:11:20.750Z,12.37
2019-05-10T03:13:52.100Z,13.50
2019-05-10T03:16:23.341Z,11.87
2019-05-10T03:18:53.787Z,12.93
2019-05-10T03:21:24.095Z,13.13
2019-05-10T03:23:54.006Z,12.43
2019-05-10T03:26:23.243Z,12.77
2019-05-10T03:28:52.525Z,12.50
2019-05-10T03:31:22.128Z,13.30
2019-05-10T03:33:56.273Z,13.90
2019-05-10T03:36:22.654Z,13.73
2019-05-10T03:38:52.070Z,15.73
2019-05-10T03:41:21.761Z,14.83
2019-05-10T03:43:51.391Z,14.70
2019-05-10T03:46:20.632Z,15.00
2019-05-10T03:48:50.276Z,15.27
2019-05-10T03:51:19.519Z,14.00
2019-05-10T03:53:48.869Z,15.10
2019-05-10T03:56:18.398Z,14.00
2019-05-10T03:58:47.715Z,16.10
2019-05-10T04:01:17.377Z,17.50
2019-05-10T04:03:46.558Z,18.77
2019-05-10T04:06:15.802Z,18.37
2019-05-10T04:08:45.075Z,20.57
2019-05-10T04:11:14.227Z,22.40
2019-05-10T04:13:43.466Z,19.77
2019-05-10T04:16:12.809Z,20.60
2019-05-10T04:18:41.978Z,21.40
2019-05-10T04:21:11.321Z,22.90
2019-05-10T04:23:40.923Z,23.93
2019-05-10T04:26:10.531Z,23.03
2019-05-10T04:28:39.780Z,22.30
2019-05-10T04:31:09.045Z,22.33
2019-05-10T04:33:38.561Z,22.97
2019-05-10T04:36:12.429Z,20.60
2019-05-10T04:38:39.002Z,22.37
2019-05-10T04:41:08.277Z,22.50
2019-05-10T04:43:37.807Z,21.30
2019-05-10T04:46:07.045Z,20.57
2019-05-10T04:48:36.500Z,21.47
2019-05-10T04:51:06.109Z,20.87
2019-05-10T04:53:35.401Z,19.97
2019-05-10T04:56:05.284Z,20.07
2019-05-10T04:58:34.527Z,19.03
2019-05-10T05:01:04.115Z,18.60
2019-05-10T05:03:33.284Z,18.73
2019-05-10T05:06:02.834Z,17.77
2019-05-10T05:08:32.335Z,18.00
2019-05-10T05:11:01.607Z,17.67
2019-05-10T05:13:31.195Z,18.93
2019-05-10T05:16:00.378Z,19.57
2019-05-10T05:18:29.777Z,19.67
2019-05-10T05:20:59.384Z,20.13
2019-05-10T05:23:28.885Z,20.30
2019-05-10T05:25:58.483Z,20.33
2019-05-10T05:28:27.818Z,19.77
2019-05-10T05:30:56.982Z,20.43
2019-05-10T05:33:26.256Z,20.13
2019-05-10T05:35:55.522Z,19.87
2019-05-10T05:38:24.823Z,19.60
2019-05-10T05:40:54.070Z,19.93
2019-05-10T05:43:23.495Z,19.67
2019-05-10T05:45:52.772Z,21.43
2019-05-10T05:48:23.087Z,21.63
2019-05-10T05:50:53.317Z,21.17
2019-05-10T05:53:22.802Z,20.47
2019-05-10T05:55:52.050Z,19.63
2019-05-10T05:58:26.864Z,19.07
2019-05-10T06:00:52.229Z,21.50
2019-05-10T06:03:27.583Z,18.77
2019-05-10T06:05:52.729Z,19.57
2019-05-10T06:08:24.822Z,16.87
2019-05-10T06:10:57.718Z,17.50
2019-05-10T06:13:30.147Z,15.47
2019-05-10T06:16:00.119Z,15.53
2019-05-10T06:18:27.835Z,17.03
2019-05-10T06:20:57.050Z,17.83
2019-05-10T06:23:29.035Z,15.93
2019-05-10T06:25:57.851Z,12.97
2019-05-10T06:28:55.191Z,12.33
2019-05-10T06:30:58.436Z,11.60
2019-05-10T06:33:28.775Z,11.67
2019-05-10T06:35:58.138Z,11.53
2019-05-10T06:38:27.414Z,12.90
2019-05-10T06:40:56.682Z,10.93
2019-05-10T06:43:26.056Z,9.60
2019-05-10T06:45:55.881Z,11.40
2019-05-10T06:48:29.598Z,12.07
2019-05-10T06:50:57.158Z,11.63
2019-05-10T06:53:26.372Z,11.03
2019-05-10T06:55:55.684Z,11.30
2019-05-10T06:58:25.264Z,10.00
2019-05-10T07:00:54.796Z,10.50
2019-05-10T07:03:24.068Z,10.40
2019-05-10T07:05:53.264Z,10.63
2019-05-10T07:08:22.908Z,10.97
2019-05-10T07:10:52.406Z,12.13
2019-05-10T07:13:21.721Z,13.07
2019-05-10T07:15:51.149Z,14.50
2019-05-10T07:18:22.668Z,14.00
2019-05-10T07:20:51.548Z,13.57
2019-05-10T07:23:20.933Z,13.27
2019-05-10T07:25:50.130Z,12.23
2019-05-10T07:28:19.409Z,13.70
2019-05-10T07:30:48.817Z,10.70
2019-05-10T07:33:18.024Z,8.10
2019-05-10T07:35:48.636Z,11.00
2019-05-10T07:38:23.500Z,11.07
2019-05-10T07:40:49.202Z,7.93
2019-05-10T07:43:26.332Z,8.57
2019-05-10T07:45:50.427Z,10.67
2019-05-10T07:48:23.048Z,6.20
2019-05-10T07:50:51.982Z,4.33
2019-05-10T07:53:22.990Z,3.37
2019-05-10T07:55:52.249Z,3.90
2019-05-10T07:58:21.494Z,4.77
2019-05-10T08:00:51.155Z,5.23
2019-05-10T08:03:23.626Z,4.23
2019-05-10T08:05:56.934Z,4.60
2019-05-10T08:08:24.547Z,5.70
2019-05-10T08:10:54.383Z,7.20
2019-05-10T08:13:25.284Z,4.67
2019-05-10T08:15:55.015Z,5.20
2019-05-10T08:18:25.537Z,5.37
2019-05-10T08:21:01.980Z,4.80
2019-05-10T08:23:28.007Z,5.60
2019-05-10T08:25:57.425Z,7.57
2019-05-10T08:28:27.835Z,7.27
2019-05-10T08:30:59.095Z,5.77
2019-05-10T08:33:28.349Z,4.17
2019-05-10T08:36:00.545Z,4.10
2019-05-10T08:38:28.491Z,4.60
2019-05-10T08:40:57.693Z,3.60
2019-05-10T08:43:30.743Z,3.27
2019-05-10T08:45:58.428Z,3.60
2019-05-10T08:48:28.037Z,3.30
2019-05-10T08:51:02.034Z,4.07
2019-05-10T08:53:28.547Z,4.00
2019-05-10T08:55:58.962Z,4.53
2019-05-10T08:58:36.773Z,4.20
2019-05-10T09:01:14.628Z,3.90
2019-05-10T09:03:32.166Z,3.30
2019-05-10T09:06:05.380Z,3.70
2019-05-10T09:08:34.761Z,4.67
2019-05-10T09:11:06.661Z,4.30
2019-05-10T09:13:40.842Z,4.40
2019-05-10T09:16:06.465Z,4.07
2019-05-10T09:18:38.081Z,5.43
2019-05-10T09:21:08.861Z,3.93
2019-05-10T09:23:38.161Z,4.30
2019-05-10T09:26:10.095Z,4.60
2019-05-10T09:28:39.152Z,3.90
2019-05-10T09:31:18.785Z,3.20
2019-05-10T09:33:43.399Z,4.23
2019-05-10T09:36:12.491Z,4.37
2019-05-10T09:38:44.181Z,4.40
2019-05-10T09:41:13.174Z,4.20
2019-05-10T09:43:48.353Z,3.00
2019-05-10T09:46:14.112Z,3.33
2019-05-10T09:48:45.056Z,3.60
2019-05-10T09:51:19.220Z,5.90
2019-05-10T09:53:48.563Z,4.03
2019-05-10T09:56:17.369Z,4.70
2019-05-10T09:58:48.183Z,4.77
2019-05-10T10:01:21.475Z,4.37
2019-05-10T10:03:49.181Z,4.50
2019-05-10T10:06:18.714Z,4.33
2019-05-10T10:08:51.927Z,3.50
2019-05-10T10:11:19.621Z,2.93
2019-05-10T10:13:57.114Z,2.73
2019-05-10T10:16:20.157Z,2.60
2019-05-10T10:18:49.356Z,1.93
2019-05-10T10:21:30.598Z,2.30
2019-05-10T10:23:50.321Z,2.30
2019-05-10T10:26:22.293Z,2.63
2019-05-10T10:28:55.303Z,2.50
2019-05-10T10:31:29.636Z,2.80
2019-05-10T10:33:58.232Z,2.43
2019-05-10T10:36:23.789Z,2.97
2019-05-10T10:38:53.002Z,3.90
2019-05-10T10:41:27.185Z,3.37
2019-05-10T10:43:53.622Z,3.80
2019-05-10T10:46:22.958Z,4.40
2019-05-10T10:48:52.280Z,5.03
2019-05-10T10:51:21.508Z,4.37
2019-05-10T10:53:54.127Z,4.73
2019-05-10T10:56:22.114Z,5.40
2019-05-10T10:58:51.372Z,5.87
2019-05-10T11:01:25.410Z,5.50
2019-05-10T11:03:51.932Z,4.50
2019-05-10T11:06:21.248Z,5.27
2019-05-10T11:08:51.858Z,5.60
2019-05-10T11:11:21.243Z,5.53
2019-05-10T11:13:58.770Z,5.70
2019-05-10T11:16:21.465Z,6.10
2019-05-10T11:18:51.953Z,5.70
2019-05-10T11:21:23.331Z,6.63
2019-05-10T11:23:52.257Z,7.30
2019-05-10T11:26:26.740Z,6.47
2019-05-10T11:28:53.328Z,6.53
2019-05-10T11:31:22.594Z,6.70
2019-05-10T11:33:53.826Z,7.03
2019-05-10T11:36:22.832Z,6.30
2019-05-10T11:38:58.307Z,6.70
2019-05-10T11:41:24.653Z,7.40
2019-05-10T11:43:58.063Z,7.40
2019-05-10T11:46:27.930Z,7.27
2019-05-10T11:48:56.577Z,7.60
2019-05-10T11:51:25.767Z,7.70
2019-05-10T11:53:59.522Z,8.07
2019-05-10T11:56:27.818Z,8.43
2019-05-10T11:58:57.373Z,8.03
2019-05-10T12:01:26.606Z,8.73
2019-05-10T12:03:55.874Z,9.27
2019-05-10T12:06:25.465Z,8.83
2019-05-10T12:09:01.207Z,9.33
2019-05-10T12:11:33.314Z,8.43
2019-05-10T12:13:57.480Z,8.67
2019-05-10T12:16:27.272Z,8.27
2019-05-10T12:19:14.998Z,7.77
2019-05-10T12:21:32.252Z,8.50
2019-05-10T12:24:10.593Z,8.20
2019-05-10T12:29:11.649Z,7.57
2019-05-10T12:31:33.035Z,7.50
2019-05-10T12:34:09.092Z,7.23
2019-05-10T12:36:33.471Z,6.20
2019-05-10T12:39:02.826Z,5.63
2019-05-10T12:41:31.987Z,5.83
2019-05-10T12:44:03.930Z,5.83
2019-05-10T12:46:32.165Z,5.40
2019-05-10T12:49:02.171Z,5.40
2019-05-10T12:51:32.401Z,5.10
2019-05-10T12:54:01.604Z,7.37
2019-05-10T12:56:34.799Z,6.73
2019-05-10T12:59:02.009Z,7.33
2019-05-10T13:01:33.133Z,6.60
2019-05-10T13:04:13.749Z,6.50
2019-05-10T13:06:34.090Z,6.43
2019-05-10T13:09:05.804Z,6.10
2019-05-10T13:11:35.683Z,6.60
2019-05-10T13:14:07.151Z,6.53
2019-05-10T13:16:36.539Z,5.70
2019-05-10T13:19:14.280Z,5.50
2019-05-10T13:21:41.892Z,6.03
2019-05-10T13:24:11.141Z,5.87
2019-05-10T13:26:40.865Z,6.30
2019-05-10T13:29:10.543Z,6.17
2019-05-10T13:31:42.871Z,6.77
2019-05-10T13:34:11.558Z,6.50
2019-05-10T13:36:41.367Z,7.27
2019-05-10T13:39:10.724Z,7.57
2019-05-10T13:41:40.247Z,7.33
2019-05-10T13:44:09.525Z,7.20
2019-05-10T13:46:39.066Z,8.00
2019-05-10T13:49:08.569Z,8.00
2019-05-10T13:51:38.067Z,7.70
2019-05-10T13:54:07.797Z,7.57
2019-05-10T13:56:37.142Z,7.73
2019-05-10T13:59:15.635Z,8.23
2019-05-10T14:01:38.299Z,8.67
2019-05-10T14:04:07.663Z,8.23
2019-05-10T14:06:37.301Z,8.70
2019-05-10T14:09:07.726Z,7.67
2019-05-10T14:11:40.548Z,9.07
2019-05-10T14:14:14.353Z,8.93
2019-05-10T14:16:39.737Z,9.07
2019-05-10T14:19:08.982Z,9.73
2019-05-10T14:21:38.228Z,9.17
2019-05-10T14:24:09.200Z,9.67
2019-05-10T14:26:38.410Z,10.60
2019-05-10T14:29:10.776Z,10.17
2019-05-10T14:31:38.731Z,9.13
2019-05-10T14:34:15.859Z,10.17
2019-05-10T14:36:40.923Z,10.27
2019-05-10T14:39:10.615Z,9.33
2019-05-10T14:41:40.214Z,9.73
2019-05-10T14:44:09.689Z,9.13
2019-05-10T14:46:39.378Z,8.70
2019-05-10T14:49:09.824Z,8.57
2019-05-10T14:51:56.601Z,8.10
2019-05-10T14:54:10.562Z,7.87
2019-05-10T14:56:39.936Z,9.33
2019-05-10T14:59:09.222Z,8.80
2019-05-10T15:01:42.874Z,9.00
2019-05-10T15:04:09.770Z,9.97
2019-05-10T15:06:39.144Z,9.87
2019-05-10T15:09:20.389Z,9.23
2019-05-10T15:11:41.065Z,9.10
2019-05-10T15:14:10.696Z,10.00
2019-05-10T15:16:40.086Z,10.00
2019-05-10T15:19:09.819Z,9.60
2019-05-10T15:21:39.202Z,9.23
2019-05-10T15:24:08.383Z,9.17
2019-05-10T15:26:43.996Z,9.53
2019-05-10T15:29:14.853Z,8.83
2019-05-10T15:31:40.178Z,9.50
2019-05-10T15:34:09.440Z,8.80
2019-05-10T15:36:38.704Z,9.67
2019-05-10T15:39:08.346Z,9.30
2019-05-10T15:41:37.660Z,8.93
2019-05-10T15:44:07.302Z,9.10
2019-05-10T15:46:41.885Z,9.60
2019-05-10T15:49:07.845Z,9.43
2019-05-10T15:51:37.314Z,8.80
2019-05-10T15:54:07.446Z,9.43
2019-05-10T15:56:41.594Z,9.60
2019-05-10T15:59:12.970Z,9.30
2019-05-10T16:01:39.587Z,8.73
2019-05-10T16:04:08.788Z,8.30
2019-05-10T16:06:39.419Z,7.73
2019-05-10T16:09:16.967Z,7.97
2019-05-10T16:11:40.843Z,7.97
2019-05-10T16:14:10.163Z,7.73
2019-05-10T16:16:39.760Z,7.10
2019-05-10T16:19:12.941Z,8.33
2019-05-10T16:21:40.117Z,8.00
2019-05-10T16:24:13.001Z,6.57
2019-05-10T16:26:41.059Z,7.10
2019-05-10T16:29:10.277Z,7.73
2019-05-10T16:31:40.362Z,7.03
2019-05-10T16:34:09.984Z,7.10
2019-05-10T16:36:39.661Z,7.57
2019-05-10T16:39:09.211Z,6.93
2019-05-10T16:41:38.494Z,7.03
2019-05-10T16:44:08.125Z,7.30
2019-05-10T16:46:37.366Z,7.70
2019-05-10T16:49:10.011Z,7.80
2019-05-10T16:51:42.321Z,7.20
2019-05-10T16:54:10.595Z,7.80
2019-05-10T16:56:40.168Z,7.30
2019-05-10T16:59:09.774Z,7.30
2019-05-10T17:01:39.043Z,7.10
2019-05-10T17:04:08.219Z,6.93
2019-05-10T17:06:40.536Z,7.40
2019-05-10T17:09:16.047Z,7.13
2019-05-10T17:11:41.410Z,7.20
2019-05-10T17:14:12.711Z,7.50
2019-05-10T17:16:41.586Z,7.00
2019-05-10T17:19:11.074Z,7.83
2019-05-10T17:21:40.300Z,8.03
2019-05-10T17:24:09.538Z,7.27
2019-05-10T17:26:38.900Z,6.83
2019-05-10T17:29:12.907Z,6.80
2019-05-10T17:31:39.688Z,6.60
2019-05-10T17:34:10.325Z,6.30
2019-05-10T17:36:39.631Z,6.17
2019-05-10T17:39:08.920Z,6.73
2019-05-10T17:41:38.198Z,6.70
2019-05-10T17:44:07.388Z,7.03
2019-05-10T17:46:36.644Z,6.33
2019-05-10T17:49:05.854Z,6.50
2019-05-10T17:51:35.662Z,6.67
2019-05-10T17:54:05.479Z,6.10
2019-05-10T17:56:38.869Z,6.87
2019-05-10T17:59:11.661Z,7.47
2019-05-10T18:01:36.786Z,6.13
2019-05-10T18:04:06.118Z,6.00
2019-05-10T18:06:35.638Z,6.10
2019-05-10T18:09:06.923Z,6.90
2019-05-10T18:11:36.778Z,6.03
2019-05-10T18:14:07.104Z,6.83
2019-05-10T18:16:36.480Z,7.33
2019-05-10T18:19:05.766Z,7.50
2019-05-10T18:21:35.088Z,7.00
2019-05-10T18:24:04.345Z,7.10
2019-05-10T18:26:34.227Z,7.33
2019-05-10T18:29:04.796Z,7.30
2019-05-10T18:31:33.988Z,7.47
2019-05-10T18:34:03.382Z,7.20
2019-05-10T18:36:50.512Z,7.40
2019-05-10T18:39:09.228Z,7.70
2019-05-10T18:41:41.393Z,7.80
2019-05-10T18:44:08.244Z,7.27
2019-05-10T18:46:37.481Z,7.70
2019-05-10T18:49:06.742Z,7.83
2019-05-10T18:51:36.472Z,8.37
2019-05-10T18:54:05.855Z,8.23
2019-05-10T18:56:35.347Z,8.20
2019-05-10T18:59:07.493Z,7.57
2019-05-10T19:01:38.622Z,8.87
2019-05-10T19:04:13.124Z,8.77
2019-05-10T19:06:37.818Z,8.87
2019-05-10T19:09:08.208Z,9.47
2019-05-10T19:11:38.930Z,9.10
2019-05-10T19:14:09.157Z,9.50
2019-05-10T19:16:38.710Z,9.67
2019-05-10T19:19:08.308Z,9.03
2019-05-10T19:21:38.211Z,10.07
2019-05-10T19:24:07.687Z,9.67
2019-05-10T19:26:36.950Z,10.37
2019-05-10T19:29:06.846Z,11.53
2019-05-10T19:31:38.186Z,11.10
2019-05-10T19:34:09.078Z,10.50
2019-05-10T19:36:38.951Z,9.70
2019-05-10T19:39:08.922Z,10.13
2019-05-10T19:41:38.292Z,9.37
2019-05-10T19:44:07.616Z,10.20
2019-05-10T19:46:39.696Z,9.93
2019-05-10T19:49:13.279Z,10.33
2019-05-10T19:51:42.162Z,10.87
2019-05-10T19:54:13.593Z,10.70
2019-05-10T19:56:42.182Z,11.37
2019-05-10T19:59:13.467Z,11.67
2019-05-10T20:01:45.082Z,10.63
2019-05-10T20:04:14.002Z,10.90
2019-05-10T20:06:43.980Z,10.60
2019-05-10T20:09:13.190Z,10.87
2019-05-10T20:11:42.507Z,11.73
2019-05-10T20:14:11.692Z,10.90
2019-05-10T20:16:52.165Z,11.40
2019-05-10T20:19:12.326Z,10.97
2019-05-10T20:21:42.080Z,11.17
2019-05-10T20:24:11.259Z,11.40
2019-05-10T20:26:40.521Z,11.50
2019-05-10T20:29:10.073Z,11.90
2019-05-10T20:31:39.707Z,11.17
2019-05-10T20:34:09.279Z,12.67
2019-05-10T20:36:38.464Z,11.70
2019-05-10T20:39:08.071Z,12.20
2019-05-10T20:41:37.405Z,11.87
2019-05-10T20:44:06.668Z,12.63
2019-05-10T20:46:35.953Z,11.27
2019-05-10T20:49:05.238Z,12.13
2019-05-10T20:51:34.595Z,11.97
2019-05-10T20:54:04.412Z,11.17
2019-05-10T20:56:34.132Z,11.43
2019-05-10T20:59:06.044Z,11.87
2019-05-10T21:01:35.628Z,11.57
2019-05-10T21:04:04.922Z,12.07
2019-05-10T21:06:34.513Z,12.40
2019-05-10T21:09:06.278Z,13.07
2019-05-10T21:11:35.846Z,13.03
2019-05-10T21:14:05.171Z,12.53
2019-05-10T21:16:34.524Z,11.97
2019-05-10T21:19:03.814Z,12.10
2019-05-10T21:21:33.006Z,12.57
2019-05-10T21:24:02.188Z,11.97
2019-05-10T21:26:31.544Z,13.30
2019-05-10T21:29:00.776Z,12.73
2019-05-10T21:31:30.353Z,13.23
2019-05-10T21:34:09.161Z,12.87
2019-05-10T21:36:31.515Z,13.57
2019-05-10T21:39:00.716Z,12.93
2019-05-10T21:41:30.288Z,12.53
2019-05-10T21:43:59.530Z,13.50
2019-05-10T21:46:28.820Z,13.03
2019-05-10T21:48:58.408Z,13.87
2019-05-10T21:51:27.663Z,13.83
2019-05-10T21:53:56.839Z,14.40
2019-05-10T21:56:26.094Z,14.10
2019-05-10T21:58:55.275Z,14.07
2019-05-10T22:01:24.765Z,14.07
2019-05-10T22:03:54.391Z,15.23
2019-05-10T22:06:23.638Z,15.87
2019-05-10T22:08:52.915Z,15.87
2019-05-10T22:11:22.160Z,15.57
2019-05-10T22:13:51.448Z,16.77
2019-05-10T22:16:20.741Z,16.70
2019-05-10T22:18:59.075Z,17.97
2019-05-10T22:21:28.440Z,17.80
2019-05-10T22:23:57.607Z,17.07
2019-05-10T22:26:27.019Z,19.07
2019-05-10T22:28:56.315Z,19.17
2019-05-10T22:31:25.799Z,20.10
2019-05-10T22:33:55.661Z,20.03
2019-05-10T22:36:24.903Z,20.97
2019-05-10T22:39:06.543Z,20.23
2019-05-10T22:41:25.683Z,20.17
2019-05-10T22:43:54.953Z,20.23
2019-05-10T22:46:24.658Z,19.90
2019-05-10T22:48:54.177Z,19.23
2019-05-10T22:51:23.359Z,18.80
2019-05-10T22:53:59.717Z,19.50
2019-05-10T22:56:23.518Z,19.43
2019-05-10T22:58:52.787Z,18.80
2019-05-10T23:01:22.124Z,18.93
2019-05-10T23:03:51.453Z,18.80
2019-05-10T23:06:20.619Z,18.60
2019-05-10T23:08:49.883Z,17.50
2019-05-10T23:11:19.116Z,18.13
2019-05-10T23:13:48.391Z,16.73
2019-05-10T23:16:17.639Z,16.40
2019-05-10T23:18:46.815Z,15.63
2019-05-10T23:21:16.019Z,14.33
2019-05-10T23:23:45.267Z,15.77
2019-05-10T23:26:14.462Z,14.73
2019-05-10T23:28:43.963Z,13.23
2019-05-10T23:31:13.601Z,13.60
2019-05-10T23:33:42.907Z,12.80
2019-05-10T23:36:12.089Z,12.97
2019-05-10T23:38:41.276Z,12.47
2019-05-10T23:41:10.529Z,11.50
2019-05-10T23:43:39.777Z,10.90
2019-05-10T23:46:09.319Z,11.97
2019-05-10T23:48:38.563Z,11.97
2019-05-10T23:51:07.814Z,11.33
2019-05-10T23:53:37.707Z,11.73
2019-05-10T23:56:06.893Z,11.33
2019-05-10T23:58:36.529Z,11.70
